sensor_id;sensor_type;location;lat;lon;timestamp;temperature;humidity
37380;DHT22;23252;-33.992;18.480;2023-08-01T00:01:09;11.00;99.90
37380;DHT22;23252;-33.992;18.480;2023-08-01T00:03:36;11.00;99.90
37380;DHT22;23252;-33.992;18.480;2023-08-01T00:06:03;10.90;99.90
37380;DHT22;23252;-33.992;18.480;2023-08-01T00:08:29;10.80;99.90
37380;DHT22;23252;-33.992;18.480;2023-08-01T00:10:55;10.70;99.90
37380;DHT22;23252;-33.992;18.480;2023-08-01T00:13:22;10.60;99.90
37380;DHT22;23252;-33.992;18.480;2023-08-01T00:15:48;10.60;99.90
37380;DHT22;23252;-33.992;18.480;2023-08-01T00:18:15;10.60;99.90
37380;DHT22;23252;-33.992;18.480;2023-08-01T00:20:41;10.50;99.90
37380;DHT22;23252;-33.992;18.480;2023-08-01T00:23:08;10.60;99.90
37380;DHT22;23252;-33.992;18.480;2023-08-01T00:25:35;10.60;99.90
37380;DHT22;23252;-33.992;18.480;2023-08-01T00:28:01;10.50;99.90
37380;DHT22;23252;-33.992;18.480;2023-08-01T00:30:28;10.50;99.90
37380;DHT22;23252;-33.992;18.480;2023-08-01T00:32:54;10.40;99.90
37380;DHT22;23252;-33.992;18.480;2023-08-01T00:35:21;10.40;99.90
37380;DHT22;23252;-33.992;18.480;2023-08-01T00:37:47;10.30;99.90
37380;DHT22;23252;-33.992;18.480;2023-08-01T00:40:13;10.30;99.90
37380;DHT22;23252;-33.992;18.480;2023-08-01T00:42:42;10.30;99.90
37380;DHT22;23252;-33.992;18.480;2023-08-01T00:45:09;10.20;99.90
37380;DHT22;23252;-33.992;18.480;2023-08-01T00:47:36;10.20;99.90
37380;DHT22;23252;-33.992;18.480;2023-08-01T00:50:03;10.20;99.90
37380;DHT22;23252;-33.992;18.480;2023-08-01T00:52:29;10.20;99.90
37380;DHT22;23252;-33.992;18.480;2023-08-01T00:54:56;10.10;99.90
37380;DHT22;23252;-33.992;18.480;2023-08-01T00:57:22;10.20;99.90
37380;DHT22;23252;-33.992;18.480;2023-08-01T00:59:49;10.10;99.90
37380;DHT22;23252;-33.992;18.480;2023-08-01T01:02:16;10.10;99.90
37380;DHT22;23252;-33.992;18.480;2023-08-01T01:04:42;10.10;99.90
37380;DHT22;23252;-33.992;18.480;2023-08-01T01:07:09;10.10;99.90
37380;DHT22;23252;-33.992;18.480;2023-08-01T01:09:36;10.00;99.90
37380;DHT22;23252;-33.992;18.480;2023-08-01T01:12:02;10.00;99.90
37380;DHT22;23252;-33.992;18.480;2023-08-01T01:14:30;10.00;99.90
37380;DHT22;23252;-33.992;18.480;2023-08-01T01:16:56;10.00;99.90
37380;DHT22;23252;-33.992;18.480;2023-08-01T01:19:23;9.90;99.90
37380;DHT22;23252;-33.992;18.480;2023-08-01T01:21:50;9.90;99.90
37380;DHT22;23252;-33.992;18.480;2023-08-01T01:24:18;9.90;99.90
37380;DHT22;23252;-33.992;18.480;2023-08-01T01:26:46;9.80;99.90
37380;DHT22;23252;-33.992;18.480;2023-08-01T01:29:14;9.80;99.90
37380;DHT22;23252;-33.992;18.480;2023-08-01T01:31:41;9.80;99.90
37380;DHT22;23252;-33.992;18.480;2023-08-01T01:34:08;9.80;99.90
37380;DHT22;23252;-33.992;18.480;2023-08-01T01:36:35;9.80;99.90
37380;DHT22;23252;-33.992;18.480;2023-08-01T01:39:02;9.70;99.90
37380;DHT22;23252;-33.992;18.480;2023-08-01T01:41:28;9.70;99.90
37380;DHT22;23252;-33.992;18.480;2023-08-01T01:43:55;9.70;99.90
37380;DHT22;23252;-33.992;18.480;2023-08-01T01:46:21;9.70;99.90
37380;DHT22;23252;-33.992;18.480;2023-08-01T01:48:48;9.60;99.90
37380;DHT22;23252;-33.992;18.480;2023-08-01T01:51:14;9.60;99.90
37380;DHT22;23252;-33.992;18.480;2023-08-01T01:53:41;9.60;99.90
37380;DHT22;23252;-33.992;18.480;2023-08-01T01:56:08;9.50;99.90
37380;DHT22;23252;-33.992;18.480;2023-08-01T01:58:34;9.50;99.90
37380;DHT22;23252;-33.992;18.480;2023-08-01T02:01:00;9.50;99.90
37380;DHT22;23252;-33.992;18.480;2023-08-01T02:03:27;9.50;99.90
37380;DHT22;23252;-33.992;18.480;2023-08-01T02:05:54;9.50;99.90
37380;DHT22;23252;-33.992;18.480;2023-08-01T02:08:20;9.50;99.90
37380;DHT22;23252;-33.992;18.480;2023-08-01T02:10:48;9.50;99.90
37380;DHT22;23252;-33.992;18.480;2023-08-01T02:13:15;9.50;99.90
37380;DHT22;23252;-33.992;18.480;2023-08-01T02:15:41;9.60;99.90
37380;DHT22;23252;-33.992;18.480;2023-08-01T02:18:08;9.70;99.90
37380;DHT22;23252;-33.992;18.480;2023-08-01T02:20:34;9.60;99.90
37380;DHT22;23252;-33.992;18.480;2023-08-01T02:23:00;9.70;99.90
37380;DHT22;23252;-33.992;18.480;2023-08-01T02:25:27;9.70;99.90
37380;DHT22;23252;-33.992;18.480;2023-08-01T02:27:54;9.70;99.90
37380;DHT22;23252;-33.992;18.480;2023-08-01T02:30:20;9.70;99.90
37380;DHT22;23252;-33.992;18.480;2023-08-01T02:32:46;9.70;99.90
37380;DHT22;23252;-33.992;18.480;2023-08-01T02:35:13;9.60;99.90
37380;DHT22;23252;-33.992;18.480;2023-08-01T02:37:39;9.60;99.90
37380;DHT22;23252;-33.992;18.480;2023-08-01T02:40:09;9.60;99.90
37380;DHT22;23252;-33.992;18.480;2023-08-01T02:42:35;9.60;99.90
37380;DHT22;23252;-33.992;18.480;2023-08-01T02:45:02;9.60;99.90
37380;DHT22;23252;-33.992;18.480;2023-08-01T02:47:28;9.70;99.90
37380;DHT22;23252;-33.992;18.480;2023-08-01T02:49:55;9.70;99.90
37380;DHT22;23252;-33.992;18.480;2023-08-01T02:52:21;9.70;99.90
37380;DHT22;23252;-33.992;18.480;2023-08-01T02:54:48;9.70;99.90
37380;DHT22;23252;-33.992;18.480;2023-08-01T02:57:14;9.70;99.90
37380;DHT22;23252;-33.992;18.480;2023-08-01T02:59:41;9.60;99.90
37380;DHT22;23252;-33.992;18.480;2023-08-01T03:02:07;9.60;99.90
37380;DHT22;23252;-33.992;18.480;2023-08-01T03:04:34;9.60;99.90
37380;DHT22;23252;-33.992;18.480;2023-08-01T03:07:01;9.60;99.90
37380;DHT22;23252;-33.992;18.480;2023-08-01T03:09:28;9.60;99.90
37380;DHT22;23252;-33.992;18.480;2023-08-01T03:11:54;9.60;99.90
37380;DHT22;23252;-33.992;18.480;2023-08-01T03:14:21;9.60;99.90
37380;DHT22;23252;-33.992;18.480;2023-08-01T03:16:47;9.60;99.90
37380;DHT22;23252;-33.992;18.480;2023-08-01T03:19:14;9.60;99.90
37380;DHT22;23252;-33.992;18.480;2023-08-01T03:21:40;9.60;99.90
37380;DHT22;23252;-33.992;18.480;2023-08-01T03:24:07;9.50;99.90
37380;DHT22;23252;-33.992;18.480;2023-08-01T03:26:34;9.50;99.90
37380;DHT22;23252;-33.992;18.480;2023-08-01T03:29:01;9.50;99.90
37380;DHT22;23252;-33.992;18.480;2023-08-01T03:31:28;9.60;99.90
37380;DHT22;23252;-33.992;18.480;2023-08-01T03:33:55;9.60;99.90
37380;DHT22;23252;-33.992;18.480;2023-08-01T03:36:25;9.60;99.90
37380;DHT22;23252;-33.992;18.480;2023-08-01T03:38:51;9.50;99.90
37380;DHT22;23252;-33.992;18.480;2023-08-01T03:41:18;9.60;99.90
37380;DHT22;23252;-33.992;18.480;2023-08-01T03:43:45;9.50;99.90
37380;DHT22;23252;-33.992;18.480;2023-08-01T03:46:12;9.50;99.90
37380;DHT22;23252;-33.992;18.480;2023-08-01T03:48:38;9.60;99.90
37380;DHT22;23252;-33.992;18.480;2023-08-01T03:51:04;9.50;99.90
37380;DHT22;23252;-33.992;18.480;2023-08-01T03:53:31;9.50;99.90
37380;DHT22;23252;-33.992;18.480;2023-08-01T03:55:58;9.50;99.90
37380;DHT22;23252;-33.992;18.480;2023-08-01T03:58:24;9.50;99.90
37380;DHT22;23252;-33.992;18.480;2023-08-01T04:00:51;9.50;99.90
37380;DHT22;23252;-33.992;18.480;2023-08-01T04:03:17;9.50;99.90
37380;DHT22;23252;-33.992;18.480;2023-08-01T04:05:44;9.50;99.90
37380;DHT22;23252;-33.992;18.480;2023-08-01T04:08:10;9.50;99.90
37380;DHT22;23252;-33.992;18.480;2023-08-01T04:10:36;9.60;99.90
37380;DHT22;23252;-33.992;18.480;2023-08-01T04:13:03;9.60;99.90
37380;DHT22;23252;-33.992;18.480;2023-08-01T04:15:29;9.60;99.90
37380;DHT22;23252;-33.992;18.480;2023-08-01T04:17:56;9.50;99.90
37380;DHT22;23252;-33.992;18.480;2023-08-01T04:20:22;9.50;99.90
37380;DHT22;23252;-33.992;18.480;2023-08-01T04:22:49;9.50;99.90
37380;DHT22;23252;-33.992;18.480;2023-08-01T04:25:15;9.40;99.90
37380;DHT22;23252;-33.992;18.480;2023-08-01T04:27:42;9.50;99.90
37380;DHT22;23252;-33.992;18.480;2023-08-01T04:30:09;9.50;99.90
37380;DHT22;23252;-33.992;18.480;2023-08-01T04:32:35;9.60;99.90
37380;DHT22;23252;-33.992;18.480;2023-08-01T04:35:02;9.60;99.90
37380;DHT22;23252;-33.992;18.480;2023-08-01T04:37:28;9.60;99.90
37380;DHT22;23252;-33.992;18.480;2023-08-01T04:39:55;9.60;99.90
37380;DHT22;23252;-33.992;18.480;2023-08-01T04:42:21;9.60;99.90
37380;DHT22;23252;-33.992;18.480;2023-08-01T04:44:48;9.70;99.90
37380;DHT22;23252;-33.992;18.480;2023-08-01T04:47:14;9.70;99.90
37380;DHT22;23252;-33.992;18.480;2023-08-01T04:49:41;9.70;99.90
37380;DHT22;23252;-33.992;18.480;2023-08-01T04:52:08;9.80;99.90
37380;DHT22;23252;-33.992;18.480;2023-08-01T04:54:34;9.80;99.90
37380;DHT22;23252;-33.992;18.480;2023-08-01T04:57:01;9.80;99.90
37380;DHT22;23252;-33.992;18.480;2023-08-01T04:59:27;9.70;99.90
37380;DHT22;23252;-33.992;18.480;2023-08-01T05:01:54;9.70;99.90
37380;DHT22;23252;-33.992;18.480;2023-08-01T05:04:20;9.80;99.90
37380;DHT22;23252;-33.992;18.480;2023-08-01T05:06:47;9.80;99.90
37380;DHT22;23252;-33.992;18.480;2023-08-01T05:09:13;9.90;99.90
37380;DHT22;23252;-33.992;18.480;2023-08-01T05:11:40;9.90;99.90
37380;DHT22;23252;-33.992;18.480;2023-08-01T05:14:06;9.90;99.90
37380;DHT22;23252;-33.992;18.480;2023-08-01T05:16:33;9.90;99.90
37380;DHT22;23252;-33.992;18.480;2023-08-01T05:18:59;9.90;99.90
37380;DHT22;23252;-33.992;18.480;2023-08-01T05:21:26;9.90;99.90
37380;DHT22;23252;-33.992;18.480;2023-08-01T05:23:52;9.90;99.90
37380;DHT22;23252;-33.992;18.480;2023-08-01T05:26:19;9.80;99.90
37380;DHT22;23252;-33.992;18.480;2023-08-01T05:28:45;9.80;99.90
37380;DHT22;23252;-33.992;18.480;2023-08-01T05:31:12;9.80;99.90
37380;DHT22;23252;-33.992;18.480;2023-08-01T05:33:38;9.70;99.90
37380;DHT22;23252;-33.992;18.480;2023-08-01T05:36:05;9.60;99.90
37380;DHT22;23252;-33.992;18.480;2023-08-01T05:38:31;9.70;99.90
37380;DHT22;23252;-33.992;18.480;2023-08-01T05:40:58;9.60;99.90
37380;DHT22;23252;-33.992;18.480;2023-08-01T05:43:24;9.60;99.90
37380;DHT22;23252;-33.992;18.480;2023-08-01T05:45:51;9.60;99.90
37380;DHT22;23252;-33.992;18.480;2023-08-01T05:48:17;9.70;99.90
37380;DHT22;23252;-33.992;18.480;2023-08-01T05:50:44;9.70;99.90
37380;DHT22;23252;-33.992;18.480;2023-08-01T05:53:10;9.70;99.90
37380;DHT22;23252;-33.992;18.480;2023-08-01T05:55:37;9.70;99.90
37380;DHT22;23252;-33.992;18.480;2023-08-01T05:58:03;9.70;99.90
37380;DHT22;23252;-33.992;18.480;2023-08-01T06:00:30;9.70;99.90
37380;DHT22;23252;-33.992;18.480;2023-08-01T06:02:56;9.70;99.90
37380;DHT22;23252;-33.992;18.480;2023-08-01T06:05:23;9.80;99.90
37380;DHT22;23252;-33.992;18.480;2023-08-01T06:07:49;9.80;99.90
37380;DHT22;23252;-33.992;18.480;2023-08-01T06:10:16;9.90;99.90
37380;DHT22;23252;-33.992;18.480;2023-08-01T06:12:42;10.00;99.90
37380;DHT22;23252;-33.992;18.480;2023-08-01T06:15:09;10.00;99.90
37380;DHT22;23252;-33.992;18.480;2023-08-01T06:17:36;10.10;99.90
37380;DHT22;23252;-33.992;18.480;2023-08-01T06:20:02;10.20;99.90
37380;DHT22;23252;-33.992;18.480;2023-08-01T06:22:31;10.20;99.90
37380;DHT22;23252;-33.992;18.480;2023-08-01T06:24:58;10.30;99.90
37380;DHT22;23252;-33.992;18.480;2023-08-01T06:27:25;10.40;99.90
37380;DHT22;23252;-33.992;18.480;2023-08-01T06:29:51;10.50;99.90
37380;DHT22;23252;-33.992;18.480;2023-08-01T06:32:18;10.50;99.90
37380;DHT22;23252;-33.992;18.480;2023-08-01T06:34:44;10.60;99.90
37380;DHT22;23252;-33.992;18.480;2023-08-01T06:37:11;10.80;99.90
37380;DHT22;23252;-33.992;18.480;2023-08-01T06:39:37;10.90;99.90
37380;DHT22;23252;-33.992;18.480;2023-08-01T06:42:04;11.00;99.90
37380;DHT22;23252;-33.992;18.480;2023-08-01T06:44:30;11.10;99.90
37380;DHT22;23252;-33.992;18.480;2023-08-01T06:46:57;11.10;99.90
37380;DHT22;23252;-33.992;18.480;2023-08-01T06:49:23;11.10;99.90
37380;DHT22;23252;-33.992;18.480;2023-08-01T06:51:50;11.20;99.90
37380;DHT22;23252;-33.992;18.480;2023-08-01T06:54:17;11.30;99.90
37380;DHT22;23252;-33.992;18.480;2023-08-01T06:56:43;11.40;99.90
37380;DHT22;23252;-33.992;18.480;2023-08-01T06:59:15;11.50;99.90
37380;DHT22;23252;-33.992;18.480;2023-08-01T07:01:42;11.60;99.90
37380;DHT22;23252;-33.992;18.480;2023-08-01T07:04:10;11.60;99.90
37380;DHT22;23252;-33.992;18.480;2023-08-01T07:06:37;11.70;99.90
37380;DHT22;23252;-33.992;18.480;2023-08-01T07:09:04;11.70;99.90
37380;DHT22;23252;-33.992;18.480;2023-08-01T07:11:30;11.80;99.90
37380;DHT22;23252;-33.992;18.480;2023-08-01T07:13:57;11.90;99.90
37380;DHT22;23252;-33.992;18.480;2023-08-01T07:16:24;12.00;99.90
37380;DHT22;23252;-33.992;18.480;2023-08-01T07:18:50;12.00;99.90
37380;DHT22;23252;-33.992;18.480;2023-08-01T07:21:17;12.10;99.90
37380;DHT22;23252;-33.992;18.480;2023-08-01T07:23:44;12.10;99.90
37380;DHT22;23252;-33.992;18.480;2023-08-01T07:26:11;12.20;99.90
37380;DHT22;23252;-33.992;18.480;2023-08-01T07:28:37;12.30;99.90
37380;DHT22;23252;-33.992;18.480;2023-08-01T07:31:07;12.20;99.90
37380;DHT22;23252;-33.992;18.480;2023-08-01T07:33:34;12.20;99.90
37380;DHT22;23252;-33.992;18.480;2023-08-01T07:36:01;12.30;99.90
37380;DHT22;23252;-33.992;18.480;2023-08-01T07:38:28;12.30;99.90
37380;DHT22;23252;-33.992;18.480;2023-08-01T07:40:55;12.30;99.90
37380;DHT22;23252;-33.992;18.480;2023-08-01T07:43:22;12.40;99.90
37380;DHT22;23252;-33.992;18.480;2023-08-01T07:45:49;12.40;99.90
37380;DHT22;23252;-33.992;18.480;2023-08-01T07:48:16;12.50;99.90
37380;DHT22;23252;-33.992;18.480;2023-08-01T07:50:43;12.50;99.90
37380;DHT22;23252;-33.992;18.480;2023-08-01T07:53:09;12.60;99.90
37380;DHT22;23252;-33.992;18.480;2023-08-01T07:55:36;12.60;99.90
37380;DHT22;23252;-33.992;18.480;2023-08-01T07:58:02;12.70;99.90
37380;DHT22;23252;-33.992;18.480;2023-08-01T08:00:29;12.80;99.90
37380;DHT22;23252;-33.992;18.480;2023-08-01T08:02:56;12.80;99.90
37380;DHT22;23252;-33.992;18.480;2023-08-01T08:05:22;12.80;99.90
37380;DHT22;23252;-33.992;18.480;2023-08-01T08:07:48;12.90;99.90
37380;DHT22;23252;-33.992;18.480;2023-08-01T08:10:15;12.90;99.90
37380;DHT22;23252;-33.992;18.480;2023-08-01T08:12:42;13.00;99.90
37380;DHT22;23252;-33.992;18.480;2023-08-01T08:15:09;13.00;99.90
37380;DHT22;23252;-33.992;18.480;2023-08-01T08:17:35;13.10;99.90
37380;DHT22;23252;-33.992;18.480;2023-08-01T08:20:02;13.10;99.90
37380;DHT22;23252;-33.992;18.480;2023-08-01T08:22:29;13.10;99.90
37380;DHT22;23252;-33.992;18.480;2023-08-01T08:24:56;13.20;99.90
37380;DHT22;23252;-33.992;18.480;2023-08-01T08:27:22;13.20;99.90
37380;DHT22;23252;-33.992;18.480;2023-08-01T08:29:49;13.20;99.90
37380;DHT22;23252;-33.992;18.480;2023-08-01T08:32:16;13.20;99.90
37380;DHT22;23252;-33.992;18.480;2023-08-01T08:34:42;13.20;99.90
37380;DHT22;23252;-33.992;18.480;2023-08-01T08:37:09;13.30;99.90
37380;DHT22;23252;-33.992;18.480;2023-08-01T08:39:35;13.30;99.90
37380;DHT22;23252;-33.992;18.480;2023-08-01T08:42:02;13.30;99.90
37380;DHT22;23252;-33.992;18.480;2023-08-01T08:44:28;13.30;99.90
37380;DHT22;23252;-33.992;18.480;2023-08-01T08:47:02;13.40;99.90
37380;DHT22;23252;-33.992;18.480;2023-08-01T08:49:32;13.40;99.90
37380;DHT22;23252;-33.992;18.480;2023-08-01T08:51:59;13.50;99.90
37380;DHT22;23252;-33.992;18.480;2023-08-01T08:54:27;13.50;99.90
37380;DHT22;23252;-33.992;18.480;2023-08-01T08:56:53;13.50;99.90
37380;DHT22;23252;-33.992;18.480;2023-08-01T08:59:20;13.50;99.90
37380;DHT22;23252;-33.992;18.480;2023-08-01T09:01:47;13.50;99.90
37380;DHT22;23252;-33.992;18.480;2023-08-01T09:04:15;13.50;99.90
37380;DHT22;23252;-33.992;18.480;2023-08-01T09:06:46;13.50;99.90
37380;DHT22;23252;-33.992;18.480;2023-08-01T09:09:14;13.60;99.90
37380;DHT22;23252;-33.992;18.480;2023-08-01T09:11:41;13.60;99.90
37380;DHT22;23252;-33.992;18.480;2023-08-01T09:14:08;13.70;99.90
37380;DHT22;23252;-33.992;18.480;2023-08-01T09:16:35;13.70;99.90
37380;DHT22;23252;-33.992;18.480;2023-08-01T09:19:02;13.60;99.90
37380;DHT22;23252;-33.992;18.480;2023-08-01T09:21:32;13.70;99.90
37380;DHT22;23252;-33.992;18.480;2023-08-01T09:24:19;13.80;99.90
37380;DHT22;23252;-33.992;18.480;2023-08-01T09:26:47;13.80;99.90
37380;DHT22;23252;-33.992;18.480;2023-08-01T09:29:16;13.80;99.90
37380;DHT22;23252;-33.992;18.480;2023-08-01T09:31:43;13.80;99.90
37380;DHT22;23252;-33.992;18.480;2023-08-01T09:34:23;13.90;99.90
37380;DHT22;23252;-33.992;18.480;2023-08-01T09:36:57;13.90;99.90
37380;DHT22;23252;-33.992;18.480;2023-08-01T09:39:24;13.90;99.90
37380;DHT22;23252;-33.992;18.480;2023-08-01T09:42:01;13.90;99.90
37380;DHT22;23252;-33.992;18.480;2023-08-01T09:44:29;13.90;99.90
37380;DHT22;23252;-33.992;18.480;2023-08-01T09:47:01;13.90;99.90
37380;DHT22;23252;-33.992;18.480;2023-08-01T09:49:29;13.90;99.90
37380;DHT22;23252;-33.992;18.480;2023-08-01T09:51:56;14.00;99.90
37380;DHT22;23252;-33.992;18.480;2023-08-01T09:54:23;14.10;99.90
37380;DHT22;23252;-33.992;18.480;2023-08-01T09:56:51;14.10;99.90
37380;DHT22;23252;-33.992;18.480;2023-08-01T09:59:20;14.20;99.90
37380;DHT22;23252;-33.992;18.480;2023-08-01T10:01:51;14.20;99.90
37380;DHT22;23252;-33.992;18.480;2023-08-01T10:04:24;14.20;99.90
37380;DHT22;23252;-33.992;18.480;2023-08-01T10:06:57;14.20;99.90
37380;DHT22;23252;-33.992;18.480;2023-08-01T10:09:26;14.40;99.90
37380;DHT22;23252;-33.992;18.480;2023-08-01T10:11:56;14.40;99.90
37380;DHT22;23252;-33.992;18.480;2023-08-01T10:14:22;14.50;99.90
37380;DHT22;23252;-33.992;18.480;2023-08-01T10:16:50;14.40;99.90
37380;DHT22;23252;-33.992;18.480;2023-08-01T10:19:17;14.50;99.90
37380;DHT22;23252;-33.992;18.480;2023-08-01T10:21:47;14.50;99.90
37380;DHT22;23252;-33.992;18.480;2023-08-01T10:24:15;14.60;99.90
37380;DHT22;23252;-33.992;18.480;2023-08-01T10:26:45;14.70;99.90
37380;DHT22;23252;-33.992;18.480;2023-08-01T10:29:14;14.80;99.90
37380;DHT22;23252;-33.992;18.480;2023-08-01T10:31:54;14.80;99.90
37380;DHT22;23252;-33.992;18.480;2023-08-01T10:34:21;14.80;99.90
37380;DHT22;23252;-33.992;18.480;2023-08-01T10:36:58;14.80;99.90
37380;DHT22;23252;-33.992;18.480;2023-08-01T10:39:26;14.90;99.90
37380;DHT22;23252;-33.992;18.480;2023-08-01T10:42:00;14.90;99.90
37380;DHT22;23252;-33.992;18.480;2023-08-01T10:44:27;15.00;99.90
37380;DHT22;23252;-33.992;18.480;2023-08-01T10:47:02;15.10;99.90
37380;DHT22;23252;-33.992;18.480;2023-08-01T10:49:43;15.20;99.90
37380;DHT22;23252;-33.992;18.480;2023-08-01T10:52:23;15.20;99.90
37380;DHT22;23252;-33.992;18.480;2023-08-01T10:55:00;15.20;99.90
37380;DHT22;23252;-33.992;18.480;2023-08-01T10:57:28;15.20;99.90
37380;DHT22;23252;-33.992;18.480;2023-08-01T10:59:59;15.30;99.90
37380;DHT22;23252;-33.992;18.480;2023-08-01T11:02:29;15.40;99.90
37380;DHT22;23252;-33.992;18.480;2023-08-01T11:05:03;15.40;99.90
37380;DHT22;23252;-33.992;18.480;2023-08-01T11:07:31;15.40;99.90
37380;DHT22;23252;-33.992;18.480;2023-08-01T11:10:09;15.50;99.90
37380;DHT22;23252;-33.992;18.480;2023-08-01T11:12:41;15.50;99.90
37380;DHT22;23252;-33.992;18.480;2023-08-01T11:15:12;15.50;99.90
37380;DHT22;23252;-33.992;18.480;2023-08-01T11:17:40;15.60;99.90
37380;DHT22;23252;-33.992;18.480;2023-08-01T11:20:11;15.60;99.90
37380;DHT22;23252;-33.992;18.480;2023-08-01T11:22:48;15.60;99.90
37380;DHT22;23252;-33.992;18.480;2023-08-01T11:25:14;15.60;99.90
37380;DHT22;23252;-33.992;18.480;2023-08-01T11:27:41;15.70;99.90
37380;DHT22;23252;-33.992;18.480;2023-08-01T11:30:08;15.70;99.90
37380;DHT22;23252;-33.992;18.480;2023-08-01T11:32:36;15.80;99.90
37380;DHT22;23252;-33.992;18.480;2023-08-01T11:35:03;15.90;99.90
37380;DHT22;23252;-33.992;18.480;2023-08-01T11:37:30;16.00;99.90
37380;DHT22;23252;-33.992;18.480;2023-08-01T11:39:57;16.00;99.90
37380;DHT22;23252;-33.992;18.480;2023-08-01T11:42:25;16.10;99.90
37380;DHT22;23252;-33.992;18.480;2023-08-01T11:44:51;16.10;99.90
37380;DHT22;23252;-33.992;18.480;2023-08-01T11:47:18;16.30;99.90
37380;DHT22;23252;-33.992;18.480;2023-08-01T11:49:47;16.60;99.90
37380;DHT22;23252;-33.992;18.480;2023-08-01T11:52:29;16.90;99.90
37380;DHT22;23252;-33.992;18.480;2023-08-01T11:54:56;17.20;99.90
37380;DHT22;23252;-33.992;18.480;2023-08-01T11:57:23;17.60;99.90
37380;DHT22;23252;-33.992;18.480;2023-08-01T11:59:55;18.00;99.90
37380;DHT22;23252;-33.992;18.480;2023-08-01T12:02:28;18.00;99.90
37380;DHT22;23252;-33.992;18.480;2023-08-01T12:04:58;18.20;99.90
37380;DHT22;23252;-33.992;18.480;2023-08-01T12:07:27;18.40;99.90
37380;DHT22;23252;-33.992;18.480;2023-08-01T12:09:59;18.40;99.90
37380;DHT22;23252;-33.992;18.480;2023-08-01T12:12:29;18.30;99.90
37380;DHT22;23252;-33.992;18.480;2023-08-01T12:14:55;18.20;99.90
37380;DHT22;23252;-33.992;18.480;2023-08-01T12:17:22;18.20;99.90
37380;DHT22;23252;-33.992;18.480;2023-08-01T12:19:49;18.20;99.90
37380;DHT22;23252;-33.992;18.480;2023-08-01T12:22:16;18.30;99.90
37380;DHT22;23252;-33.992;18.480;2023-08-01T12:24:42;18.30;99.90
37380;DHT22;23252;-33.992;18.480;2023-08-01T12:27:09;18.10;99.90
37380;DHT22;23252;-33.992;18.480;2023-08-01T12:29:36;18.10;99.90
37380;DHT22;23252;-33.992;18.480;2023-08-01T12:32:03;18.20;99.90
37380;DHT22;23252;-33.992;18.480;2023-08-01T12:34:30;18.30;99.90
37380;DHT22;23252;-33.992;18.480;2023-08-01T12:36:56;18.40;99.90
37380;DHT22;23252;-33.992;18.480;2023-08-01T12:39:22;18.50;99.90
37380;DHT22;23252;-33.992;18.480;2023-08-01T12:41:52;18.60;99.90
37380;DHT22;23252;-33.992;18.480;2023-08-01T12:44:20;18.60;99.90
37380;DHT22;23252;-33.992;18.480;2023-08-01T12:46:46;18.60;99.90
37380;DHT22;23252;-33.992;18.480;2023-08-01T12:49:13;18.40;99.90
37380;DHT22;23252;-33.992;18.480;2023-08-01T12:51:40;18.20;99.90
37380;DHT22;23252;-33.992;18.480;2023-08-01T12:54:06;18.20;99.90
37380;DHT22;23252;-33.992;18.480;2023-08-01T12:56:32;18.10;99.90
37380;DHT22;23252;-33.992;18.480;2023-08-01T12:58:59;18.30;99.90
37380;DHT22;23252;-33.992;18.480;2023-08-01T13:01:25;18.30;99.90
37380;DHT22;23252;-33.992;18.480;2023-08-01T13:03:52;18.40;99.90
37380;DHT22;23252;-33.992;18.480;2023-08-01T13:06:18;18.50;99.90
37380;DHT22;23252;-33.992;18.480;2023-08-01T13:08:45;18.30;99.90
37380;DHT22;23252;-33.992;18.480;2023-08-01T13:11:12;18.20;99.90
37380;DHT22;23252;-33.992;18.480;2023-08-01T13:13:43;18.00;99.90
37380;DHT22;23252;-33.992;18.480;2023-08-01T13:16:09;17.70;99.90
37380;DHT22;23252;-33.992;18.480;2023-08-01T13:18:36;17.20;99.90
37380;DHT22;23252;-33.992;18.480;2023-08-01T13:21:09;16.90;99.90
37380;DHT22;23252;-33.992;18.480;2023-08-01T13:23:36;16.70;99.90
37380;DHT22;23252;-33.992;18.480;2023-08-01T13:26:03;16.50;99.90
37380;DHT22;23252;-33.992;18.480;2023-08-01T13:28:29;16.30;99.90
37380;DHT22;23252;-33.992;18.480;2023-08-01T13:30:56;16.20;99.90
37380;DHT22;23252;-33.992;18.480;2023-08-01T13:33:22;16.00;99.90
37380;DHT22;23252;-33.992;18.480;2023-08-01T13:35:52;15.90;99.90
37380;DHT22;23252;-33.992;18.480;2023-08-01T13:38:19;15.80;99.90
37380;DHT22;23252;-33.992;18.480;2023-08-01T13:40:46;15.80;99.90
37380;DHT22;23252;-33.992;18.480;2023-08-01T13:43:13;15.80;99.90
37380;DHT22;23252;-33.992;18.480;2023-08-01T13:45:39;15.70;99.90
37380;DHT22;23252;-33.992;18.480;2023-08-01T13:48:06;15.60;99.90
37380;DHT22;23252;-33.992;18.480;2023-08-01T13:50:36;15.50;99.90
37380;DHT22;23252;-33.992;18.480;2023-08-01T13:53:03;15.50;99.90
37380;DHT22;23252;-33.992;18.480;2023-08-01T13:55:29;15.50;99.90
37380;DHT22;23252;-33.992;18.480;2023-08-01T13:57:58;15.40;99.90
37380;DHT22;23252;-33.992;18.480;2023-08-01T14:00:24;15.40;99.90
37380;DHT22;23252;-33.992;18.480;2023-08-01T14:02:51;15.40;99.90
37380;DHT22;23252;-33.992;18.480;2023-08-01T14:05:17;15.30;99.90
37380;DHT22;23252;-33.992;18.480;2023-08-01T14:07:44;15.20;99.90
37380;DHT22;23252;-33.992;18.480;2023-08-01T14:10:11;15.20;99.90
37380;DHT22;23252;-33.992;18.480;2023-08-01T14:12:37;15.20;99.90
37380;DHT22;23252;-33.992;18.480;2023-08-01T14:15:04;15.10;99.90
37380;DHT22;23252;-33.992;18.480;2023-08-01T14:17:31;15.10;99.90
37380;DHT22;23252;-33.992;18.480;2023-08-01T14:19:58;15.10;99.90
37380;DHT22;23252;-33.992;18.480;2023-08-01T14:22:24;15.10;99.90
37380;DHT22;23252;-33.992;18.480;2023-08-01T14:24:51;15.00;99.90
37380;DHT22;23252;-33.992;18.480;2023-08-01T14:27:17;15.00;99.90
37380;DHT22;23252;-33.992;18.480;2023-08-01T14:29:45;14.90;99.90
37380;DHT22;23252;-33.992;18.480;2023-08-01T14:32:12;14.90;99.90
37380;DHT22;23252;-33.992;18.480;2023-08-01T14:34:39;14.90;99.90
37380;DHT22;23252;-33.992;18.480;2023-08-01T14:37:05;14.80;99.90
37380;DHT22;23252;-33.992;18.480;2023-08-01T14:39:32;14.80;99.90
37380;DHT22;23252;-33.992;18.480;2023-08-01T14:41:58;14.70;99.90
37380;DHT22;23252;-33.992;18.480;2023-08-01T14:44:25;14.70;99.90
37380;DHT22;23252;-33.992;18.480;2023-08-01T14:46:52;14.70;99.90
37380;DHT22;23252;-33.992;18.480;2023-08-01T14:49:20;14.60;99.90
37380;DHT22;23252;-33.992;18.480;2023-08-01T14:51:48;14.50;99.90
37380;DHT22;23252;-33.992;18.480;2023-08-01T14:54:17;14.50;99.90
37380;DHT22;23252;-33.992;18.480;2023-08-01T14:56:44;14.40;99.90
37380;DHT22;23252;-33.992;18.480;2023-08-01T14:59:10;14.40;99.90
37380;DHT22;23252;-33.992;18.480;2023-08-01T15:01:37;14.30;99.90
37380;DHT22;23252;-33.992;18.480;2023-08-01T15:04:04;14.30;99.90
37380;DHT22;23252;-33.992;18.480;2023-08-01T15:06:30;14.30;99.90
37380;DHT22;23252;-33.992;18.480;2023-08-01T15:08:57;14.20;99.90